This is the latest recevied weather packets stored in our database for station/object KA1ROH. If no packets are shown the sender has not sent any weather packets the latest 10 day(s).
| Time | Temp. | Humidity | Pressure | Rain* | Wind** | Luminosity | Snow |
|---|---|---|---|---|---|---|---|
| 1777951267 | 16.11° C | 54% | 1003.7 hPa | 0 mm | - | - | - |
| 1777950666 | 16.11° C | 54% | 1003.7 hPa | 0 mm | - | - | - |
| 1777950065 | 16.67° C | 53% | 1003.7 hPa | 0 mm | - | - | - |
| 1777948264 | 15.56° C | 56% | 1004.1 hPa | 0 mm | - | - | - |
| 1777940361 | 16.67° C | 53% | 1003.7 hPa | 0 mm | - | - | - |
| 1777939128 | 18.33° C | 48% | 1003.4 hPa | 0 mm | - | - | - |
| 1777934861 | 21.11° C | 41% | 1002.7 hPa | 0 mm | - | - | - |
| 1777933027 | 21.11° C | 42% | 1002.7 hPa | 0 mm | - | - | - |
| 1777928760 | 20.56° C | 43% | 1002.4 hPa | 0 mm | - | - | - |
| 1777926928 | 21.11° C | 44% | 1002.4 hPa | 0 mm | - | - | - |
| 1777925125 | 20° C | 44% | 1003 hPa | 0 mm | - | - | - |
| 1777917886 | 16.11° C | 55% | 1005.1 hPa | 0 mm | - | - | - |
| 1777917285 | 16.11° C | 56% | 1005.1 hPa | 0 mm | - | - | - |
| 1777911216 | 12.78° C | 71% | 1006.1 hPa | 0 mm | - | - | - |
| 1777908150 | 8.89° C | 90% | 1006.8 hPa | 0.51 mm | - | - | - |
| 1777899740 | 10.56° C | 69% | 1005.8 hPa | 0 mm | - | - | - |
| 1777895504 | 10° C | 75% | 1005.4 hPa | 0 mm | - | - | - |
| 1777893702 | 9.44° C | 78% | 1005.8 hPa | 0 mm | - | - | - |
| 1777891238 | 8.89° C | 81% | 1006.1 hPa | 0 mm | - | - | - |
| 1777890036 | 8.33° C | 82% | 1006.1 hPa | 0 mm | - | - | - |
| 1777888835 | 8.33° C | 81% | 1006.1 hPa | 0 mm | - | - | - |
| 1777888235 | 8.33° C | 81% | 1006.1 hPa | 0 mm | - | - | - |
| 1777884537 | 8.89° C | 76% | 1006.4 hPa | 0 mm | - | - | - |
| 1777880778 | 7.78° C | 71% | 1007.1 hPa | 0 mm | - | - | - |
| 1777872306 | 7.78° C | 59% | 1007.1 hPa | 0 mm | - | - | - |
* Rain latest hour (hover to see other rain measurements)
** Current wind speed in m/s (hover to see current wind gust speed)